createdAt,value
2022-12-19T00:00:14.833Z,37.39
2022-12-19T00:00:48.660Z,37.26
2022-12-19T00:01:26.853Z,37.43
2022-12-19T00:01:59.234Z,37.03
2022-12-19T00:02:32.843Z,36.75
2022-12-19T00:03:05.327Z,36.98
2022-12-19T00:03:40.286Z,37.08
2022-12-19T00:04:15.564Z,37.22
2022-12-19T00:04:50.414Z,37.49
2022-12-19T00:05:22.715Z,37.42
2022-12-19T00:05:59.571Z,37.21
2022-12-19T00:06:31.987Z,37.27
2022-12-19T00:07:04.206Z,37.41
2022-12-19T00:07:39.049Z,37.67
2022-12-19T00:08:17.581Z,37.49
2022-12-19T00:08:51.714Z,37.48
2022-12-19T00:09:26.513Z,37.51
2022-12-19T00:09:58.765Z,37.74
2022-12-19T00:10:30.990Z,37.42
2022-12-19T00:11:06.208Z,37.42
2022-12-19T00:11:38.855Z,37.83
2022-12-19T00:12:15.921Z,37.93
2022-12-19T00:12:53.769Z,37.78
2022-12-19T00:13:26.300Z,37.79
2022-12-19T00:13:59.904Z,37.79
2022-12-19T00:14:34.708Z,37.73
2022-12-19T00:15:08.415Z,38.12
2022-12-19T00:15:40.620Z,38.12
2022-12-19T00:16:18.806Z,37.71
2022-12-19T00:16:51.308Z,37.73
2022-12-19T00:17:23.937Z,38.17
2022-12-19T00:17:56.202Z,38.40
2022-12-19T00:18:31.157Z,38.08
2022-12-19T00:19:03.605Z,38.07
2022-12-19T00:19:35.820Z,37.93
2022-12-19T00:20:15.964Z,37.69
2022-12-19T00:20:58.516Z,38.13
2022-12-19T00:21:35.638Z,37.78
2022-12-19T00:22:11.165Z,38.27
2022-12-19T00:22:43.632Z,37.90
2022-12-19T00:23:18.512Z,38.48
2022-12-19T00:23:51.652Z,38.39
2022-12-19T00:24:23.857Z,38.38
2022-12-19T00:24:58.673Z,38.16
2022-12-19T00:25:30.871Z,38.04
2022-12-19T00:26:09.412Z,38.53
2022-12-19T00:26:47.854Z,37.83
2022-12-19T00:27:20.064Z,37.78
2022-12-19T00:27:52.267Z,37.84
2022-12-19T00:28:27.315Z,37.78
2022-12-19T00:29:01.144Z,38.47
2022-12-19T00:29:33.946Z,38.36
2022-12-19T00:30:09.481Z,38.46
2022-12-19T00:30:44.307Z,38.19
2022-12-19T00:31:18.311Z,38.12
2022-12-19T00:31:51.770Z,38.11
2022-12-19T00:32:26.660Z,38.46
2022-12-19T00:32:58.887Z,38.13
2022-12-19T00:33:31.165Z,38.35
2022-12-19T00:34:07.785Z,38.54
2022-12-19T00:34:40.030Z,38.78
2022-12-19T00:35:14.945Z,38.58
2022-12-19T00:35:49.815Z,38.20
2022-12-19T00:36:23.839Z,38.38
2022-12-19T00:36:56.051Z,37.93
2022-12-19T00:37:30.864Z,37.80
2022-12-19T00:38:04.065Z,37.94
2022-12-19T00:38:36.364Z,38.19
2022-12-19T00:39:11.876Z,38.24
2022-12-19T00:39:44.169Z,38.01
2022-12-19T00:40:18.783Z,38.27
2022-12-19T00:40:51.002Z,38.03
2022-12-19T00:41:27.247Z,38.39
2022-12-19T00:42:01.217Z,38.17
2022-12-19T00:42:33.473Z,37.96
2022-12-19T00:43:08.280Z,38.20
2022-12-19T00:43:41.225Z,38.35
2022-12-19T00:44:17.207Z,38.31
2022-12-19T00:44:52.048Z,37.93
2022-12-19T00:45:24.299Z,38.06
2022-12-19T00:45:56.559Z,37.89
2022-12-19T00:46:30.966Z,37.87
2022-12-19T00:47:05.780Z,38.02
2022-12-19T00:47:37.986Z,37.99
2022-12-19T00:48:10.233Z,38.35
2022-12-19T00:48:50.171Z,38.17
2022-12-19T00:49:22.408Z,38.34
2022-12-19T00:49:54.750Z,37.90
2022-12-19T00:50:32.164Z,38.00
2022-12-19T00:51:06.840Z,38.18
2022-12-19T00:51:39.637Z,38.41
2022-12-19T00:52:16.555Z,38.27
2022-12-19T00:52:48.774Z,37.88
2022-12-19T00:53:20.989Z,38.22
2022-12-19T00:53:57.609Z,37.97
2022-12-19T00:54:30.804Z,37.84
2022-12-19T00:55:07.626Z,37.87
2022-12-19T00:55:50.184Z,38.12
2022-12-19T00:56:23.355Z,37.89
2022-12-19T00:56:55.579Z,37.90
2022-12-19T00:57:31.100Z,38.01
2022-12-19T00:58:03.313Z,38.09
2022-12-19T00:58:35.827Z,38.24
2022-12-19T00:59:10.918Z,37.87
2022-12-19T00:59:43.181Z,38.26
2022-12-19T01:00:16.712Z,38.36
2022-12-19T01:00:51.668Z,38.01
2022-12-19T01:01:27.328Z,38.09
2022-12-19T01:02:02.506Z,38.31
2022-12-19T01:02:35.977Z,38.34
2022-12-19T01:03:08.302Z,38.12
2022-12-19T01:03:58.149Z,38.20
2022-12-19T01:04:39.869Z,37.99
2022-12-19T01:05:20.850Z,38.18
2022-12-19T01:05:57.129Z,38.13
2022-12-19T01:06:30.066Z,38.02
2022-12-19T01:07:05.883Z,38.01
2022-12-19T01:07:38.193Z,38.01
2022-12-19T01:08:10.625Z,37.82
2022-12-19T01:08:43.233Z,38.26
2022-12-19T01:09:18.252Z,38.02
2022-12-19T01:09:50.467Z,37.95
2022-12-19T01:10:23.578Z,37.78
2022-12-19T01:10:58.668Z,37.83
2022-12-19T01:11:45.686Z,37.83
2022-12-19T01:12:38.467Z,37.83
2022-12-19T01:13:10.720Z,37.83
2022-12-19T01:13:43.260Z,37.78
2022-12-19T01:14:22.340Z,37.61
2022-12-19T01:15:02.933Z,37.97
2022-12-19T01:15:40.025Z,37.97
2022-12-19T01:16:13.680Z,37.78
2022-12-19T01:16:48.570Z,37.66
2022-12-19T01:17:20.872Z,37.84
2022-12-19T01:17:55.701Z,37.83
2022-12-19T01:18:27.948Z,37.63
2022-12-19T01:19:00.188Z,37.95
2022-12-19T01:19:43.403Z,37.79
2022-12-19T01:20:20.249Z,37.54
2022-12-19T01:21:09.947Z,37.43
2022-12-19T01:21:42.449Z,37.73
2022-12-19T01:22:15.276Z,37.54
2022-12-19T01:22:50.466Z,37.78
2022-12-19T01:23:22.675Z,38.02
2022-12-19T01:23:54.905Z,37.60
2022-12-19T01:24:28.358Z,37.65
2022-12-19T01:25:03.204Z,38.08
2022-12-19T01:25:35.668Z,37.96
2022-12-19T01:26:10.633Z,37.66
2022-12-19T01:26:45.443Z,37.58
2022-12-19T01:27:17.762Z,37.72
2022-12-19T01:27:52.648Z,38.02
2022-12-19T01:28:25.524Z,37.66
2022-12-19T01:28:58.810Z,38.08
2022-12-19T01:29:37.697Z,38.08
2022-12-19T01:30:24.986Z,37.65
2022-12-19T01:30:58.336Z,37.61
2022-12-19T01:31:33.552Z,37.94
2022-12-19T01:32:08.478Z,37.90
2022-12-19T01:32:40.721Z,37.92
2022-12-19T01:33:14.361Z,37.66
2022-12-19T01:33:49.197Z,37.78
2022-12-19T01:34:22.776Z,37.70
2022-12-19T01:34:54.997Z,37.94
2022-12-19T01:35:30.374Z,37.84
2022-12-19T01:36:07.860Z,37.76
2022-12-19T01:36:40.411Z,37.63
2022-12-19T01:37:12.758Z,37.56
2022-12-19T01:37:50.215Z,37.71
2022-12-19T01:38:22.650Z,37.95
2022-12-19T01:38:55.656Z,37.76
2022-12-19T01:39:30.875Z,37.90
2022-12-19T01:40:05.976Z,37.54
2022-12-19T01:40:38.311Z,37.48
2022-12-19T01:41:13.577Z,37.49
2022-12-19T01:41:45.818Z,37.79
2022-12-19T01:42:23.497Z,37.76
2022-12-19T01:42:59.065Z,37.66
2022-12-19T01:43:33.557Z,37.60
2022-12-19T01:44:07.227Z,37.80
2022-12-19T01:44:42.069Z,37.44
2022-12-19T01:45:33.994Z,37.62
2022-12-19T01:46:10.693Z,37.61
2022-12-19T01:46:47.392Z,37.59
2022-12-19T01:47:19.646Z,37.65
2022-12-19T01:47:55.536Z,37.75
2022-12-19T01:48:35.711Z,37.56
2022-12-19T01:49:14.044Z,37.73
2022-12-19T01:49:46.925Z,37.96
2022-12-19T01:50:23.722Z,37.72
2022-12-19T01:51:02.722Z,38.05
2022-12-19T01:51:40.715Z,37.85
2022-12-19T01:52:21.209Z,37.54
2022-12-19T01:52:58.093Z,37.63
2022-12-19T01:53:47.414Z,37.78
2022-12-19T01:54:24.708Z,37.41
2022-12-19T01:54:57.073Z,37.63
2022-12-19T01:55:33.963Z,37.44
2022-12-19T01:56:10.463Z,37.69
2022-12-19T01:56:49.156Z,37.58
2022-12-19T01:57:22.855Z,37.55
2022-12-19T01:57:55.911Z,37.93
2022-12-19T01:58:28.218Z,37.53
2022-12-19T01:59:07.016Z,37.61
2022-12-19T01:59:45.543Z,37.98
2022-12-19T02:00:18.089Z,37.71
2022-12-19T02:00:53.013Z,37.66
2022-12-19T02:01:25.599Z,37.46
2022-12-19T02:02:02.457Z,37.82
2022-12-19T02:02:41.011Z,37.73
2022-12-19T02:03:17.189Z,38.14
2022-12-19T02:03:50.564Z,37.54
2022-12-19T02:04:27.099Z,37.66
2022-12-19T02:05:04.293Z,38.09
2022-12-19T02:05:36.640Z,37.85
2022-12-19T02:06:12.467Z,37.93
2022-12-19T02:06:51.000Z,37.56
2022-12-19T02:07:25.737Z,37.76
2022-12-19T02:08:01.923Z,37.63
2022-12-19T02:08:35.789Z,37.65
2022-12-19T02:09:08.081Z,37.27
2022-12-19T02:09:43.502Z,37.51
2022-12-19T02:10:16.090Z,37.57
2022-12-19T02:10:49.858Z,37.76
2022-12-19T02:11:25.256Z,37.40
2022-12-19T02:11:59.459Z,37.83
2022-12-19T02:12:35.006Z,37.75
2022-12-19T02:13:09.918Z,37.75
2022-12-19T02:13:44.172Z,37.71
2022-12-19T02:14:19.332Z,37.64
2022-12-19T02:14:54.242Z,37.80
2022-12-19T02:15:34.090Z,38.29
2022-12-19T02:16:15.256Z,38.17
2022-12-19T02:16:55.883Z,38.42
2022-12-19T02:17:38.295Z,38.00
2022-12-19T02:18:14.831Z,38.02
2022-12-19T02:18:55.113Z,37.62
2022-12-19T02:19:53.127Z,37.44
2022-12-19T02:20:58.178Z,38.02
2022-12-19T02:21:45.611Z,37.54
2022-12-19T02:22:28.658Z,38.24
2022-12-19T02:23:15.402Z,38.23
2022-12-19T02:24:25.390Z,37.75
2022-12-19T02:25:27.905Z,37.63
2022-12-19T02:26:11.307Z,37.90
2022-12-19T02:27:05.222Z,37.62
2022-12-19T02:28:21.216Z,37.54
2022-12-19T02:29:13.493Z,38.17
2022-12-19T02:30:05.845Z,38.14
2022-12-19T02:30:54.018Z,38.09
2022-12-19T02:31:30.200Z,38.10
2022-12-19T02:32:09.256Z,37.84
2022-12-19T02:32:47.315Z,38.12
2022-12-19T02:33:24.779Z,38.24
2022-12-19T02:34:03.994Z,37.90
2022-12-19T02:34:44.556Z,37.79
2022-12-19T02:35:26.728Z,37.86
2022-12-19T02:36:08.291Z,38.03
2022-12-19T02:36:43.607Z,38.15
2022-12-19T02:37:22.056Z,38.05
2022-12-19T02:38:09.978Z,37.87
2022-12-19T02:38:49.618Z,37.78
2022-12-19T02:39:26.371Z,37.70
2022-12-19T02:40:06.667Z,38.08
2022-12-19T02:40:42.080Z,37.54
2022-12-19T02:41:21.398Z,37.99
2022-12-19T02:41:59.301Z,38.04
2022-12-19T02:42:36.616Z,37.65
2022-12-19T02:43:10.560Z,38.00
2022-12-19T02:43:57.286Z,37.95
2022-12-19T02:44:36.318Z,37.68
2022-12-19T02:45:11.047Z,37.78
2022-12-19T02:45:50.067Z,37.56
2022-12-19T02:46:23.437Z,37.91
2022-12-19T02:46:56.271Z,37.64
2022-12-19T02:47:34.271Z,37.80
2022-12-19T02:48:09.201Z,37.53
2022-12-19T02:48:43.762Z,37.95
2022-12-19T02:49:22.445Z,37.66
2022-12-19T02:50:04.561Z,37.47
2022-12-19T02:50:38.896Z,37.81
2022-12-19T02:51:13.845Z,37.90
2022-12-19T02:51:46.065Z,38.10
2022-12-19T02:52:46.050Z,37.88
2022-12-19T02:53:23.797Z,37.82
2022-12-19T02:53:59.726Z,38.02
2022-12-19T02:54:32.282Z,38.15
2022-12-19T02:55:08.393Z,37.85
2022-12-19T02:55:47.965Z,38.13
2022-12-19T02:56:31.870Z,38.25
2022-12-19T02:57:12.027Z,38.15
2022-12-19T02:58:04.438Z,38.28
2022-12-19T02:58:51.699Z,37.86
2022-12-19T02:59:49.081Z,38.00
2022-12-19T03:00:23.092Z,37.68
2022-12-19T03:01:01.874Z,37.79
2022-12-19T03:01:46.092Z,38.10
2022-12-19T03:02:24.266Z,38.75
2022-12-19T03:03:04.700Z,38.24
2022-12-19T03:03:45.891Z,38.12
2022-12-19T03:04:28.678Z,37.73
2022-12-19T03:05:06.194Z,38.02
2022-12-19T03:05:48.355Z,37.83
2022-12-19T03:06:26.441Z,38.19
2022-12-19T03:07:03.935Z,38.03
2022-12-19T03:07:47.045Z,37.84
2022-12-19T03:08:24.512Z,38.02
2022-12-19T03:09:02.720Z,37.91
2022-12-19T03:09:44.158Z,37.73
2022-12-19T03:10:19.622Z,37.76
2022-12-19T03:10:58.112Z,38.17
2022-12-19T03:11:35.759Z,37.81
2022-12-19T03:12:17.026Z,38.07
2022-12-19T03:12:59.580Z,38.42
2022-12-19T03:13:34.762Z,38.38
2022-12-19T03:14:09.173Z,38.36
2022-12-19T03:14:44.456Z,38.60
2022-12-19T03:15:16.972Z,38.07
2022-12-19T03:15:49.719Z,37.90
2022-12-19T03:16:27.681Z,37.82
2022-12-19T03:17:04.733Z,38.14
2022-12-19T03:17:37.523Z,38.01
2022-12-19T03:18:12.970Z,37.76
2022-12-19T03:18:46.415Z,37.62
2022-12-19T03:19:18.733Z,37.83
2022-12-19T03:19:53.585Z,37.63
2022-12-19T03:20:29.321Z,37.88
2022-12-19T03:21:06.870Z,37.93
2022-12-19T03:21:43.651Z,38.24
2022-12-19T03:22:15.942Z,37.80
2022-12-19T03:22:48.180Z,37.81
2022-12-19T03:23:23.250Z,37.54
2022-12-19T03:23:56.223Z,37.35
2022-12-19T03:24:28.999Z,37.67
2022-12-19T03:25:04.016Z,37.33
2022-12-19T03:25:36.393Z,37.66
2022-12-19T03:26:11.020Z,37.95
2022-12-19T03:26:46.117Z,37.84
2022-12-19T03:27:25.227Z,37.82
2022-12-19T03:27:58.483Z,37.81
2022-12-19T03:28:35.426Z,37.76
2022-12-19T03:29:14.244Z,37.38
2022-12-19T03:29:50.649Z,38.30
2022-12-19T03:30:23.077Z,38.41
2022-12-19T03:30:58.573Z,37.57
2022-12-19T03:31:34.232Z,37.88
2022-12-19T03:32:10.286Z,37.70
2022-12-19T03:32:50.058Z,38.27
2022-12-19T03:33:23.636Z,37.96
2022-12-19T03:33:57.618Z,37.96
2022-12-19T03:34:34.959Z,37.68
2022-12-19T03:35:11.080Z,38.26
2022-12-19T03:35:44.367Z,37.96
2022-12-19T03:36:22.655Z,37.89
2022-12-19T03:36:57.605Z,37.88
2022-12-19T03:37:33.107Z,38.87
2022-12-19T03:38:08.973Z,38.28
2022-12-19T03:38:41.465Z,37.76
2022-12-19T03:39:14.786Z,37.74
2022-12-19T03:39:51.256Z,38.84
2022-12-19T03:40:28.295Z,39.09
2022-12-19T03:41:01.628Z,37.97
2022-12-19T03:41:51.154Z,37.60
2022-12-19T03:42:40.735Z,38.67
2022-12-19T03:43:14.694Z,38.73
2022-12-19T03:43:47.585Z,38.11
2022-12-19T03:44:22.618Z,37.92
2022-12-19T03:44:58.643Z,38.92
2022-12-19T03:45:41.340Z,39.18
2022-12-19T03:46:21.899Z,37.90
2022-12-19T03:47:01.959Z,37.83
2022-12-19T03:47:37.433Z,38.14
2022-12-19T03:48:14.475Z,38.51
2022-12-19T03:48:48.392Z,38.68
2022-12-19T03:49:20.707Z,38.44
2022-12-19T03:49:55.718Z,38.12
2022-12-19T03:50:32.217Z,38.14
2022-12-19T03:51:10.757Z,38.06
2022-12-19T03:51:52.685Z,37.83
2022-12-19T03:52:33.540Z,37.97
2022-12-19T03:53:10.612Z,37.93
2022-12-19T03:53:52.889Z,38.82
2022-12-19T03:54:27.908Z,38.92
2022-12-19T03:55:06.047Z,38.09
2022-12-19T03:55:41.641Z,38.12
2022-12-19T03:56:21.298Z,38.10
2022-12-19T03:56:56.979Z,38.21
2022-12-19T03:57:36.034Z,38.46
2022-12-19T03:58:13.220Z,39.01
2022-12-19T03:58:51.004Z,38.24
2022-12-19T03:59:32.979Z,38.29
2022-12-19T04:00:07.677Z,38.45
2022-12-19T04:00:47.549Z,38.00
2022-12-19T04:01:22.692Z,38.12
2022-12-19T04:01:57.982Z,38.18
2022-12-19T04:02:35.580Z,38.18
2022-12-19T04:03:11.453Z,38.31
2022-12-19T04:03:43.937Z,38.30
2022-12-19T04:04:16.410Z,38.14
2022-12-19T04:04:52.306Z,38.44
2022-12-19T04:05:28.881Z,38.31
2022-12-19T04:06:01.841Z,38.28
2022-12-19T04:06:34.741Z,38.60
2022-12-19T04:07:10.327Z,38.57
2022-12-19T04:07:43.116Z,38.63
2022-12-19T04:08:15.578Z,38.70
2022-12-19T04:08:50.429Z,38.70
2022-12-19T04:09:24.081Z,38.13
2022-12-19T04:09:58.683Z,38.13
2022-12-19T04:10:33.905Z,38.09
2022-12-19T04:11:10.278Z,38.08
2022-12-19T04:11:45.286Z,38.45
2022-12-19T04:12:22.202Z,38.14
2022-12-19T04:12:57.533Z,38.34
2022-12-19T04:13:34.439Z,38.38
2022-12-19T04:14:11.613Z,38.52
2022-12-19T04:14:44.209Z,38.14
2022-12-19T04:15:16.867Z,38.02
2022-12-19T04:15:51.961Z,38.17
2022-12-19T04:16:30.785Z,38.24
2022-12-19T04:17:10.399Z,38.75
2022-12-19T04:17:46.120Z,38.65
2022-12-19T04:18:22.145Z,38.42
2022-12-19T04:18:59.352Z,38.44
2022-12-19T04:19:39.756Z,38.19
2022-12-19T04:20:19.387Z,38.36
2022-12-19T04:20:59.512Z,38.06
2022-12-19T04:21:33.518Z,38.35
2022-12-19T04:22:10.870Z,38.36
2022-12-19T04:22:45.906Z,38.49
2022-12-19T04:23:22.298Z,38.11
2022-12-19T04:24:00.932Z,38.50
2022-12-19T04:24:35.109Z,38.24
2022-12-19T04:25:09.997Z,38.59
2022-12-19T04:25:46.523Z,38.47
2022-12-19T04:26:19.453Z,38.57
2022-12-19T04:26:53.132Z,38.31
2022-12-19T04:27:28.454Z,38.75
2022-12-19T04:28:03.699Z,38.81
2022-12-19T04:28:40.867Z,38.47
2022-12-19T04:29:16.978Z,38.42
2022-12-19T04:29:49.902Z,38.71
2022-12-19T04:30:22.139Z,38.58
2022-12-19T04:30:57.532Z,38.52
2022-12-19T04:31:29.860Z,38.78
2022-12-19T04:32:02.958Z,38.58
2022-12-19T04:32:40.925Z,38.87
2022-12-19T04:33:15.943Z,38.80
2022-12-19T04:33:48.186Z,38.73
2022-12-19T04:34:24.022Z,38.42
2022-12-19T04:34:56.273Z,38.62
2022-12-19T04:35:31.150Z,38.77
2022-12-19T04:36:06.136Z,38.61
2022-12-19T04:36:41.098Z,38.55
2022-12-19T04:37:13.531Z,38.31
2022-12-19T04:37:45.910Z,38.57
2022-12-19T04:38:23.018Z,38.93
2022-12-19T04:38:55.270Z,38.58
2022-12-19T04:39:28.043Z,38.41
2022-12-19T04:40:02.977Z,38.64
2022-12-19T04:40:40.823Z,38.52
2022-12-19T04:41:13.613Z,38.59
2022-12-19T04:41:45.849Z,38.82
2022-12-19T04:42:20.763Z,38.37
2022-12-19T04:42:52.974Z,38.83
2022-12-19T04:43:25.203Z,38.79
2022-12-19T04:44:00.022Z,38.90
2022-12-19T04:44:32.250Z,38.62
2022-12-19T04:45:05.929Z,38.95
2022-12-19T04:45:42.078Z,39.10
2022-12-19T04:46:14.810Z,38.49
2022-12-19T04:46:47.234Z,38.46
2022-12-19T04:47:22.324Z,38.63
2022-12-19T04:47:57.144Z,38.76
2022-12-19T04:48:29.368Z,38.62
2022-12-19T04:49:04.231Z,39.07
2022-12-19T04:49:36.443Z,38.63
2022-12-19T04:50:10.292Z,38.56
2022-12-19T04:50:45.132Z,38.39
2022-12-19T04:51:17.353Z,38.82
2022-12-19T04:51:49.608Z,38.67
2022-12-19T04:52:24.445Z,38.72
2022-12-19T04:52:57.290Z,39.01
2022-12-19T04:53:29.599Z,38.96
2022-12-19T04:54:01.863Z,38.81
2022-12-19T04:54:37.080Z,39.01
2022-12-19T04:55:10.491Z,38.78
2022-12-19T04:55:44.253Z,38.95
2022-12-19T04:56:19.782Z,38.85
2022-12-19T04:56:53.463Z,38.92
2022-12-19T04:57:25.698Z,38.99
2022-12-19T04:58:00.652Z,38.96
2022-12-19T04:58:35.612Z,38.72
2022-12-19T04:59:07.864Z,38.86
2022-12-19T04:59:42.900Z,38.94
2022-12-19T05:00:16.768Z,38.92
2022-12-19T05:00:49.004Z,38.55
2022-12-19T05:01:23.923Z,38.91
2022-12-19T05:01:56.354Z,38.89
2022-12-19T05:02:29.439Z,38.75
2022-12-19T05:03:04.672Z,39.06
2022-12-19T05:03:39.936Z,38.61
2022-12-19T05:04:12.192Z,38.87
2022-12-19T05:04:44.439Z,38.96
2022-12-19T05:05:19.491Z,38.50
2022-12-19T05:05:51.741Z,38.86
2022-12-19T05:06:24.011Z,38.87
2022-12-19T05:06:58.904Z,38.49
2022-12-19T05:07:31.120Z,38.77
2022-12-19T05:08:03.341Z,38.76
2022-12-19T05:08:38.289Z,38.82
2022-12-19T05:09:10.759Z,38.56
2022-12-19T05:09:42.977Z,38.63
2022-12-19T05:10:17.983Z,38.73
2022-12-19T05:10:50.195Z,39.02
2022-12-19T05:11:22.426Z,39.06
2022-12-19T05:11:57.250Z,38.80
2022-12-19T05:12:29.853Z,39.16
2022-12-19T05:13:02.096Z,39.10
2022-12-19T05:13:37.102Z,39.02
2022-12-19T05:14:09.728Z,39.09
2022-12-19T05:14:41.988Z,39.06
2022-12-19T05:15:17.091Z,38.95
2022-12-19T05:15:56.297Z,39.41
2022-12-19T05:16:29.082Z,38.86
2022-12-19T05:17:03.931Z,38.97
2022-12-19T05:17:36.222Z,39.11
2022-12-19T05:18:11.059Z,38.99
2022-12-19T05:18:43.702Z,38.67
2022-12-19T05:19:18.619Z,38.81
2022-12-19T05:19:50.883Z,39.36
2022-12-19T05:20:23.100Z,38.95
2022-12-19T05:20:57.943Z,38.75
2022-12-19T05:21:30.200Z,38.85
2022-12-19T05:22:02.468Z,39.26
2022-12-19T05:22:35.464Z,39.08
2022-12-19T05:23:16.767Z,39.06
2022-12-19T05:23:49.982Z,39.16
2022-12-19T05:24:22.311Z,39.15
2022-12-19T05:24:57.140Z,39.34
2022-12-19T05:25:29.355Z,39.06
2022-12-19T05:26:02.779Z,39.26
2022-12-19T05:26:37.581Z,38.91
2022-12-19T05:27:09.806Z,39.09
2022-12-19T05:27:42.018Z,39.07
2022-12-19T05:28:17.068Z,39.12
2022-12-19T05:28:49.373Z,38.84
2022-12-19T05:29:24.341Z,39.42
2022-12-19T05:29:56.568Z,39.63
2022-12-19T05:30:28.769Z,39.29
2022-12-19T05:31:05.337Z,39.20
2022-12-19T05:31:40.307Z,38.85
2022-12-19T05:32:12.568Z,38.80
2022-12-19T05:32:44.784Z,38.95
2022-12-19T05:33:19.624Z,39.14
2022-12-19T05:33:54.470Z,39.34
2022-12-19T05:34:26.747Z,39.42
2022-12-19T05:34:59.308Z,39.29
2022-12-19T05:35:34.117Z,39.42
2022-12-19T05:36:08.521Z,39.41
2022-12-19T05:36:40.980Z,39.35
2022-12-19T05:37:15.797Z,38.96
2022-12-19T05:37:48.046Z,39.19
2022-12-19T05:38:20.304Z,39.07
2022-12-19T05:38:52.665Z,39.58
2022-12-19T05:39:27.497Z,39.61
2022-12-19T05:39:59.723Z,39.48
2022-12-19T05:40:32.043Z,39.72
2022-12-19T05:41:10.098Z,39.81
2022-12-19T05:41:44.382Z,39.43
2022-12-19T05:42:19.743Z,39.38
2022-12-19T05:42:54.590Z,39.32
2022-12-19T05:43:27.678Z,39.60
2022-12-19T05:43:59.914Z,39.90
2022-12-19T05:44:34.743Z,39.56
2022-12-19T05:45:08.757Z,39.71
2022-12-19T05:45:40.983Z,39.53
2022-12-19T05:46:13.232Z,39.72
2022-12-19T05:46:48.113Z,39.33
2022-12-19T05:47:20.594Z,39.37
2022-12-19T05:47:52.827Z,39.82
2022-12-19T05:48:27.654Z,39.67
2022-12-19T05:49:02.485Z,39.59
2022-12-19T05:49:35.178Z,39.56
2022-12-19T05:50:08.707Z,39.50
2022-12-19T05:50:43.678Z,39.80
2022-12-19T05:51:16.173Z,39.77
2022-12-19T05:51:48.483Z,39.76
2022-12-19T05:52:23.291Z,39.84
2022-12-19T05:52:55.687Z,39.65
2022-12-19T05:53:28.374Z,39.65
2022-12-19T05:54:03.489Z,39.76
2022-12-19T05:54:35.703Z,39.67
2022-12-19T05:55:09.127Z,39.72
2022-12-19T05:55:43.951Z,39.24
2022-12-19T05:56:17.508Z,39.70
2022-12-19T05:56:49.744Z,39.46
2022-12-19T05:57:24.564Z,39.46
2022-12-19T05:57:56.797Z,39.68
2022-12-19T05:58:29.027Z,39.64
2022-12-19T05:59:03.856Z,39.80
2022-12-19T05:59:36.214Z,39.29
2022-12-19T06:00:10.116Z,39.43
2022-12-19T06:00:44.567Z,39.45
2022-12-19T06:01:21.599Z,39.67
2022-12-19T06:01:54.385Z,39.33
2022-12-19T06:02:26.946Z,39.72
2022-12-19T06:03:01.934Z,39.34
2022-12-19T06:03:37.032Z,39.50
2022-12-19T06:04:09.262Z,39.62
2022-12-19T06:04:44.122Z,39.70
2022-12-19T06:05:17.210Z,39.45
2022-12-19T06:05:49.460Z,39.47
2022-12-19T06:06:25.800Z,39.72
2022-12-19T06:06:58.218Z,39.35
2022-12-19T06:07:30.606Z,39.48
2022-12-19T06:08:05.440Z,39.50
2022-12-19T06:08:37.910Z,39.53
2022-12-19T06:09:10.176Z,39.33
2022-12-19T06:09:45.030Z,39.49
2022-12-19T06:10:17.484Z,39.21
2022-12-19T06:10:49.706Z,39.48
2022-12-19T06:11:24.563Z,39.55
2022-12-19T06:11:56.798Z,39.61
2022-12-19T06:12:29.062Z,39.56
2022-12-19T06:13:03.896Z,39.31
2022-12-19T06:13:36.583Z,39.56
2022-12-19T06:14:08.903Z,39.64
2022-12-19T06:14:43.725Z,39.36
2022-12-19T06:15:16.066Z,39.19
2022-12-19T06:15:48.308Z,39.55
2022-12-19T06:16:24.843Z,39.21
2022-12-19T06:16:57.188Z,39.48
2022-12-19T06:17:29.441Z,39.58
2022-12-19T06:18:04.275Z,39.41
2022-12-19T06:18:44.092Z,39.83
2022-12-19T06:19:16.640Z,39.46
2022-12-19T06:19:54.251Z,39.16
2022-12-19T06:20:26.494Z,39.55
2022-12-19T06:20:59.513Z,39.58
2022-12-19T06:21:34.380Z,39.82
2022-12-19T06:22:06.603Z,39.77
2022-12-19T06:22:38.849Z,39.44
2022-12-19T06:23:13.666Z,39.70
2022-12-19T06:23:46.600Z,39.89
2022-12-19T06:24:18.835Z,39.79
2022-12-19T06:24:53.670Z,39.88
2022-12-19T06:25:25.914Z,39.61
2022-12-19T06:25:58.668Z,39.79
2022-12-19T06:26:33.472Z,39.39
2022-12-19T06:27:05.691Z,39.45
2022-12-19T06:27:37.927Z,39.38
2022-12-19T06:28:13.135Z,39.68
2022-12-19T06:28:45.377Z,39.41
2022-12-19T06:29:20.388Z,39.43
2022-12-19T06:29:52.608Z,39.38
2022-12-19T06:30:27.450Z,39.75
2022-12-19T06:31:00.932Z,39.54
2022-12-19T06:31:33.188Z,39.61
2022-12-19T06:32:08.686Z,39.36
2022-12-19T06:32:41.249Z,39.77
2022-12-19T06:33:13.506Z,39.51
2022-12-19T06:33:50.944Z,39.43
2022-12-19T06:34:47.216Z,39.75
2022-12-19T06:35:18.401Z,39.54
2022-12-19T06:35:58.009Z,39.53
2022-12-19T06:36:34.143Z,39.48
2022-12-19T06:37:08.354Z,39.29
2022-12-19T06:37:40.747Z,39.66
2022-12-19T06:38:15.841Z,39.78
2022-12-19T06:38:48.294Z,39.51
2022-12-19T06:39:20.573Z,39.34
2022-12-19T06:39:55.447Z,39.50
2022-12-19T06:40:42.651Z,39.31
2022-12-19T06:41:30.268Z,39.68
2022-12-19T06:42:17.522Z,39.41
2022-12-19T06:42:49.739Z,39.25
2022-12-19T06:43:21.953Z,39.14
2022-12-19T06:43:56.789Z,39.26
2022-12-19T06:44:29.020Z,38.95
2022-12-19T06:45:01.291Z,39.14
2022-12-19T06:45:36.137Z,39.09
2022-12-19T06:46:09.109Z,39.07
2022-12-19T06:46:41.428Z,38.49
2022-12-19T06:47:16.770Z,38.73
2022-12-19T06:47:48.988Z,38.68
2022-12-19T06:48:21.202Z,38.82
2022-12-19T06:48:58.638Z,39.01
2022-12-19T06:49:30.856Z,38.97
2022-12-19T06:50:03.174Z,39.16
2022-12-19T06:50:38.662Z,39.21
2022-12-19T06:51:10.940Z,39.34
2022-12-19T06:51:43.266Z,39.46
2022-12-19T06:52:18.271Z,39.30
2022-12-19T06:52:50.497Z,39.49
2022-12-19T06:53:22.954Z,39.59
2022-12-19T06:53:58.471Z,39.41
2022-12-19T06:54:31.552Z,39.60
2022-12-19T06:55:06.660Z,39.20
2022-12-19T06:55:39.348Z,39.24
2022-12-19T06:56:12.827Z,39.33
2022-12-19T06:56:47.957Z,39.36
2022-12-19T06:57:20.189Z,39.55
2022-12-19T06:57:52.405Z,39.24
2022-12-19T06:58:27.635Z,39.63
2022-12-19T06:59:00.617Z,39.36
2022-12-19T06:59:35.448Z,39.53
2022-12-19T07:00:09.731Z,39.47
2022-12-19T07:00:42.014Z,39.44
2022-12-19T07:01:21.115Z,39.26
2022-12-19T07:01:58.139Z,39.29
2022-12-19T07:02:34.805Z,39.72
2022-12-19T07:03:10.052Z,39.69
2022-12-19T07:03:42.503Z,39.63
2022-12-19T07:04:23.087Z,39.29
2022-12-19T07:04:58.199Z,39.26
2022-12-19T07:05:33.057Z,39.48
2022-12-19T07:06:06.289Z,39.37
2022-12-19T07:06:39.003Z,39.59
2022-12-19T07:07:13.924Z,39.49
2022-12-19T07:07:46.138Z,39.24
2022-12-19T07:08:18.364Z,39.23
2022-12-19T07:08:53.205Z,39.33
2022-12-19T07:09:27.182Z,39.51
2022-12-19T07:10:02.109Z,39.48
2022-12-19T07:10:34.459Z,39.38
2022-12-19T07:11:06.827Z,39.26
2022-12-19T07:11:41.660Z,39.27
2022-12-19T07:12:13.962Z,39.16
2022-12-19T07:12:49.139Z,39.18
2022-12-19T07:13:21.613Z,39.55
2022-12-19T07:13:56.432Z,39.35
2022-12-19T07:14:28.667Z,39.11
2022-12-19T07:15:03.476Z,39.16
2022-12-19T07:15:36.508Z,39.48
2022-12-19T07:16:09.301Z,39.48
2022-12-19T07:16:44.465Z,39.29
2022-12-19T07:17:16.844Z,39.21
2022-12-19T07:17:51.730Z,39.42
2022-12-19T07:18:23.961Z,39.21
2022-12-19T07:18:56.208Z,39.24
2022-12-19T07:19:33.966Z,39.50
2022-12-19T07:20:07.381Z,39.19
2022-12-19T07:20:44.873Z,39.26
2022-12-19T07:21:20.191Z,39.16
2022-12-19T07:21:52.453Z,39.28
2022-12-19T07:22:27.993Z,38.93
2022-12-19T07:23:00.322Z,39.07
2022-12-19T07:23:32.689Z,39.24
2022-12-19T07:24:08.490Z,39.07
2022-12-19T07:24:41.499Z,39.00
2022-12-19T07:25:17.751Z,38.88
2022-12-19T07:25:50.150Z,38.87
2022-12-19T07:26:22.852Z,38.76
2022-12-19T07:26:57.709Z,38.95
2022-12-19T07:27:35.423Z,39.06
2022-12-19T07:28:10.999Z,38.99
2022-12-19T07:28:44.721Z,38.72
2022-12-19T07:29:19.547Z,38.69
2022-12-19T07:29:51.773Z,38.78
2022-12-19T07:30:26.657Z,39.01
2022-12-19T07:30:59.125Z,39.16
2022-12-19T07:31:31.366Z,39.07
2022-12-19T07:32:06.426Z,38.93
2022-12-19T07:32:39.632Z,38.59
2022-12-19T07:33:19.669Z,38.78
2022-12-19T07:33:53.381Z,38.65
2022-12-19T07:34:25.610Z,38.90
2022-12-19T07:35:03.780Z,38.88
2022-12-19T07:35:36.002Z,38.96
2022-12-19T07:36:11.518Z,39.01
2022-12-19T07:36:43.782Z,38.80
2022-12-19T07:37:18.616Z,39.17